Time;durP1;ratioP1;P1;durP2;ratioP2;P2;SDS_P1;SDS_P2;PMS_P1;PMS_P2;Temp;Humidity;BMP_temperature;BMP_pressure;BME280_temperature;BME280_humidity;BME280_pressure;Samples;Min_cycle;Max_cycle;Signal;HPM_P1;HPM_P2
2022/08/21 00:01:35;;;;;;;5.65;2.17;;;17.60;99.90;;;;;;5078294;28;20058;-59
2022/08/21 00:04:06;;;;;;;6.70;2.10;;;17.50;99.90;;;;;;5077699;28;20039;-59
2022/08/21 00:06:33;;;;;;;9.52;2.47;;;17.50;99.90;;;;;;5060592;28;20448;-59
2022/08/21 00:09:00;;;;;;;5.53;2.40;;;17.50;99.90;;;;;;5077423;28;20033;-59
2022/08/21 00:11:27;;;;;;;6.18;2.60;;;17.50;99.90;;;;;;5078229;28;20086;-59
2022/08/21 00:13:53;;;;;;;5.90;2.22;;;17.60;99.90;;;;;;5076714;28;20364;-62
2022/08/21 00:16:19;;;;;;;5.18;2.50;;;17.60;99.90;;;;;;5077984;28;20389;-59
2022/08/21 00:18:45;;;;;;;4.55;2.20;;;17.60;99.90;;;;;;5077313;28;20029;-59
2022/08/21 00:21:13;;;;;;;5.00;2.80;;;17.60;99.90;;;;;;5077394;28;20055;-59
2022/08/21 00:23:38;;;;;;;7.68;2.63;;;17.50;99.90;;;;;;5077215;28;20017;-59
2022/08/21 00:26:04;;;;;;;6.45;2.63;;;17.50;99.90;;;;;;5077226;28;20432;-59
2022/08/21 00:28:30;;;;;;;7.60;2.58;;;17.50;99.90;;;;;;5077161;28;20360;-59
2022/08/21 00:30:56;;;;;;;6.22;2.30;;;17.40;99.90;;;;;;5077269;28;20453;-59
2022/08/21 00:33:23;;;;;;;9.10;2.30;;;17.40;99.90;;;;;;5077116;28;20028;-59
2022/08/21 00:35:49;;;;;;;6.97;2.10;;;17.30;99.90;;;;;;5043042;28;20078;-59
2022/08/21 00:38:15;;;;;;;8.82;2.35;;;17.30;99.90;;;;;;5077144;28;20033;-59
2022/08/21 00:40:46;;;;;;;7.15;2.40;;;17.30;99.90;;;;;;5077128;28;20059;-59
2022/08/21 00:43:16;;;;;;;6.85;2.60;;;17.30;99.90;;;;;;5077015;28;20037;-59
2022/08/21 00:45:43;;;;;;;6.40;2.75;;;17.30;99.90;;;;;;5076989;28;20059;-59
2022/08/21 00:48:09;;;;;;;4.57;2.47;;;17.20;99.90;;;;;;5077009;28;20048;-59
2022/08/21 00:50:41;;;;;;;5.78;2.63;;;17.10;99.90;;;;;;5077525;28;20280;-59
2022/08/21 00:53:09;;;;;;;4.68;2.30;;;17.10;99.90;;;;;;5076953;28;20035;-59
2022/08/21 00:55:36;;;;;;;6.00;2.08;;;17.10;99.90;;;;;;5076757;28;20040;-60
2022/08/21 00:58:05;;;;;;;4.88;2.40;;;17.10;99.90;;;;;;5077166;28;20284;-60
2022/08/21 01:00:35;;;;;;;5.45;2.80;;;17.00;99.90;;;;;;5076783;28;20035;-60
2022/08/21 01:03:05;;;;;;;6.97;2.35;;;17.00;99.90;;;;;;5076815;28;20332;-59
2022/08/21 01:05:31;;;;;;;4.95;1.90;;;16.90;99.90;;;;;;5076790;28;20036;-60
2022/08/21 01:07:57;;;;;;;5.88;2.22;;;16.90;99.90;;;;;;5060009;28;20043;-59
2022/08/21 01:10:23;;;;;;;8.27;2.90;;;16.90;99.90;;;;;;5076600;28;20131;-60
2022/08/21 01:12:54;;;;;;;6.20;2.45;;;16.90;99.90;;;;;;5059310;28;20049;-59
2022/08/21 01:15:22;;;;;;;7.30;2.60;;;16.80;99.90;;;;;;5076706;28;20033;-59
2022/08/21 01:17:49;;;;;;;7.10;2.55;;;16.70;99.90;;;;;;5076642;28;20016;-60
2022/08/21 01:20:16;;;;;;;4.75;2.55;;;16.60;99.90;;;;;;5076735;28;20032;-59
2022/08/21 01:22:42;;;;;;;5.25;2.10;;;16.70;99.90;;;;;;5076761;28;20120;-60
2022/08/21 01:25:09;;;;;;;6.25;2.63;;;16.60;99.90;;;;;;5077822;28;20486;-59
2022/08/21 01:27:35;;;;;;;5.57;2.45;;;16.60;99.90;;;;;;5080837;28;20123;-60
2022/08/21 01:30:11;;;;;;;7.53;2.80;;;16.60;99.90;;;;;;5080696;28;20029;-59
2022/08/21 01:32:37;;;;;;;9.52;3.10;;;16.60;99.90;;;;;;5080615;28;20025;-59
2022/08/21 01:35:03;;;;;;;5.90;2.80;;;16.60;99.90;;;;;;5080586;28;20128;-60
2022/08/21 01:37:29;;;;;;;7.38;2.65;;;16.60;99.90;;;;;;5081046;28;20064;-59
2022/08/21 01:39:55;;;;;;;6.05;2.60;;;16.60;99.90;;;;;;5063196;28;20406;-60
2022/08/21 01:42:20;;;;;;;7.47;2.35;;;16.40;99.90;;;;;;5080472;28;20020;-61
2022/08/21 01:44:46;;;;;;;8.55;2.97;;;16.40;99.90;;;;;;5063304;28;20041;-59
2022/08/21 01:47:14;;;;;;;5.93;2.40;;;16.30;99.90;;;;;;5062941;28;20052;-58
2022/08/21 01:49:42;;;;;;;7.13;2.20;;;16.30;99.90;;;;;;5080354;28;20047;-59
2022/08/21 01:52:08;;;;;;;6.50;2.50;;;16.30;99.90;;;;;;5080238;28;20028;-60
2022/08/21 01:54:35;;;;;;;4.75;2.10;;;16.30;99.90;;;;;;5080222;28;20036;-59
2022/08/21 01:57:01;;;;;;;7.43;2.65;;;16.20;99.90;;;;;;5080171;28;20036;-60
2022/08/21 01:59:27;;;;;;;5.95;2.63;;;16.10;99.90;;;;;;5062676;28;20028;-59
2022/08/21 02:01:57;;;;;;;7.18;2.53;;;16.10;99.90;;;;;;5080027;28;20028;-59
2022/08/21 02:04:23;;;;;;;7.25;2.35;;;16.10;99.90;;;;;;5080002;28;20430;-58
2022/08/21 02:06:49;;;;;;;6.97;2.17;;;16.10;99.90;;;;;;5079965;28;20044;-59
2022/08/21 02:09:16;;;;;;;8.02;2.63;;;16.10;99.90;;;;;;5079644;28;20049;-59
2022/08/21 02:11:42;;;;;;;6.95;2.47;;;16.20;99.90;;;;;;5079930;28;20040;-59
2022/08/21 02:14:14;;;;;;;6.00;2.50;;;16.20;99.90;;;;;;5079616;28;20327;-59
2022/08/21 02:16:41;;;;;;;8.45;2.60;;;16.20;99.90;;;;;;5080425;28;20122;-59
2022/08/21 02:19:07;;;;;;;7.80;2.30;;;16.30;99.90;;;;;;5062572;28;20033;-59
2022/08/21 02:21:33;;;;;;;8.70;2.60;;;16.30;99.90;;;;;;5079638;28;20300;-63
2022/08/21 02:24:00;;;;;;;4.63;2.45;;;16.30;99.90;;;;;;5079650;28;20116;-59
2022/08/21 02:26:26;;;;;;;5.57;2.38;;;16.30;99.90;;;;;;5080382;28;20040;-59
2022/08/21 02:28:52;;;;;;;4.95;2.05;;;16.20;99.90;;;;;;5079562;28;20278;-59
2022/08/21 02:31:18;;;;;;;7.97;2.65;;;16.20;99.90;;;;;;5079522;28;20036;-59
2022/08/21 02:33:43;;;;;;;4.88;2.33;;;16.20;99.90;;;;;;5079485;28;20028;-59
2022/08/21 02:36:10;;;;;;;8.00;2.10;;;16.10;99.90;;;;;;5062144;28;20033;-59
2022/08/21 02:38:38;;;;;;;6.00;2.00;;;16.00;99.90;;;;;;5078970;28;20055;-59
2022/08/21 02:41:11;;;;;;;6.18;2.10;;;15.90;99.90;;;;;;5079585;28;20294;-60
2022/08/21 02:43:37;;;;;;;5.07;1.90;;;15.80;99.90;;;;;;5079320;28;20050;-58
2022/08/21 02:46:05;;;;;;;5.45;1.85;;;15.80;99.90;;;;;;5079766;28;20028;-58
2022/08/21 02:48:32;;;;;;;4.38;1.92;;;15.70;99.90;;;;;;5079399;28;20067;-58
2022/08/21 02:51:01;;;;;;;6.15;2.35;;;15.60;99.90;;;;;;5079154;28;20036;-58
2022/08/21 02:53:28;;;;;;;4.53;1.60;;;15.60;99.90;;;;;;5079064;28;20029;-58
2022/08/21 02:55:56;;;;;;;9.25;2.17;;;15.50;99.90;;;;;;5078954;28;20095;-59
2022/08/21 02:58:25;;;;;;;8.57;2.47;;;15.50;99.90;;;;;;5078917;28;20028;-59
2022/08/21 03:00:52;;;;;;;4.28;1.80;;;15.50;99.90;;;;;;5079027;28;20116;-58
2022/08/21 03:03:18;;;;;;;6.35;2.20;;;15.50;99.90;;;;;;5078939;28;20029;-59
2022/08/21 03:05:43;;;;;;;6.38;1.98;;;15.40;99.90;;;;;;5079449;28;20047;-58
2022/08/21 03:08:13;;;;;;;4.35;1.60;;;15.40;99.90;;;;;;5078830;28;20029;-59
2022/08/21 03:10:46;;;;;;;8.73;2.00;;;15.40;99.90;;;;;;5078588;28;20051;-58
2022/08/21 03:13:13;;;;;;;6.25;1.95;;;15.40;99.90;;;;;;5078710;28;20025;-58
2022/08/21 03:15:39;;;;;;;7.30;1.65;;;15.40;99.90;;;;;;5078698;28;20029;-59
2022/08/21 03:18:06;;;;;;;9.15;2.10;;;15.50;99.90;;;;;;5078512;28;20407;-58
2022/08/21 03:20:34;;;;;;;5.57;1.67;;;15.50;99.90;;;;;;5078506;28;20031;-58
2022/08/21 03:23:03;;;;;;;6.38;2.00;;;15.50;99.90;;;;;;5078514;28;20024;-58
2022/08/21 03:25:31;;;;;;;8.63;1.98;;;15.40;99.90;;;;;;5078402;28;20043;-58
2022/08/21 03:27:58;;;;;;;6.57;1.52;;;15.40;99.90;;;;;;5061282;28;20384;-58
2022/08/21 03:30:25;;;;;;;5.32;1.58;;;15.30;99.90;;;;;;5078345;28;20056;-58
2022/08/21 03:32:51;;;;;;;6.10;1.48;;;15.30;99.90;;;;;;5078349;28;20051;-58
2022/08/21 03:35:17;;;;;;;5.07;1.80;;;15.30;99.90;;;;;;5078299;28;20044;-58
2022/08/21 03:37:44;;;;;;;5.28;1.73;;;15.30;99.90;;;;;;5061025;28;20028;-58
2022/08/21 03:40:11;;;;;;;8.60;2.00;;;15.30;99.90;;;;;;5078325;28;20025;-58
2022/08/21 03:42:37;;;;;;;5.57;1.70;;;15.40;99.90;;;;;;5078115;28;20415;-58
2022/08/21 03:45:04;;;;;;;7.97;1.90;;;15.50;99.90;;;;;;5061053;28;20090;-58
2022/08/21 03:47:29;;;;;;;8.35;2.20;;;15.50;99.90;;;;;;5060557;28;20103;-58
2022/08/21 03:49:55;;;;;;;7.50;2.33;;;15.50;99.90;;;;;;5078089;28;20118;-58
2022/08/21 03:52:21;;;;;;;6.95;1.92;;;15.40;99.90;;;;;;5077892;28;20041;-59
2022/08/21 03:54:47;;;;;;;7.47;2.05;;;15.40;99.90;;;;;;5078039;28;20032;-58
2022/08/21 03:57:13;;;;;;;6.45;1.77;;;15.30;99.90;;;;;;5061063;28;20032;-58
2022/08/21 03:59:39;;;;;;;6.65;2.10;;;15.20;99.90;;;;;;5077750;28;20028;-58
2022/08/21 04:02:06;;;;;;;7.80;2.03;;;15.10;99.90;;;;;;5077781;28;20043;-59
2022/08/21 04:04:33;;;;;;;5.25;1.88;;;15.00;99.90;;;;;;5060366;28;20029;-59
2022/08/21 04:06:59;;;;;;;10.65;2.38;;;15.00;99.90;;;;;;5077979;28;20396;-58
2022/08/21 04:09:26;;;;;;;7.88;2.33;;;15.00;99.90;;;;;;5059900;28;20091;-59
2022/08/21 04:11:52;;;;;;;5.93;1.92;;;14.90;99.90;;;;;;5077417;28;20028;-58
2022/08/21 04:14:19;;;;;;;5.05;1.77;;;14.90;99.90;;;;;;5077602;28;20032;-59
2022/08/21 04:16:45;;;;;;;7.03;2.35;;;14.90;99.90;;;;;;5077540;28;20036;-59
2022/08/21 04:19:15;;;;;;;5.07;1.88;;;14.90;99.90;;;;;;5077462;28;20024;-59
2022/08/21 04:21:41;;;;;;;6.68;2.17;;;15.00;99.90;;;;;;5077843;28;20032;-59
2022/08/21 04:24:09;;;;;;;6.13;1.75;;;15.00;99.90;;;;;;5060124;28;20079;-59
2022/08/21 04:26:37;;;;;;;10.20;1.88;;;15.00;99.90;;;;;;5077362;28;20035;-59
2022/08/21 04:29:06;;;;;;;4.32;1.58;;;15.00;99.90;;;;;;5077472;28;20032;-59
2022/08/21 04:31:33;;;;;;;4.60;1.58;;;14.90;99.90;;;;;;5077257;28;20024;-59
2022/08/21 04:33:59;;;;;;;7.15;2.05;;;14.80;99.90;;;;;;5060012;28;20043;-59
2022/08/21 04:36:25;;;;;;;7.15;1.70;;;14.90;99.90;;;;;;5059754;28;20405;-59
2022/08/21 04:38:51;;;;;;;6.68;1.88;;;14.90;99.90;;;;;;5076964;28;20029;-59
2022/08/21 04:41:17;;;;;;;5.40;2.05;;;14.90;99.90;;;;;;5077125;28;20170;-59
2022/08/21 04:43:43;;;;;;;5.00;1.88;;;14.80;99.90;;;;;;5077355;28;20321;-59
2022/08/21 04:46:09;;;;;;;6.47;1.98;;;14.80;99.90;;;;;;5060221;28;20075;-59
2022/08/21 04:48:35;;;;;;;5.97;2.15;;;14.80;99.90;;;;;;5077296;28;20108;-59
2022/08/21 04:51:16;;;;;;;6.03;2.28;;;14.80;99.90;;;;;;5077065;28;20072;-60
2022/08/21 04:54:04;;;;;;;4.07;1.77;;;14.80;99.90;;;;;;5076931;28;20396;-59
2022/08/21 04:56:46;;;;;;;5.30;2.00;;;14.80;99.90;;;;;;5062854;28;20146;-59
2022/08/21 04:59:20;;;;;;;5.47;2.03;;;14.80;99.90;;;;;;5077137;28;20028;-59
2022/08/21 05:01:46;;;;;;;11.27;2.00;;;14.80;99.90;;;;;;5059384;28;20609;-59
2022/08/21 05:04:16;;;;;;;5.30;1.90;;;14.80;99.90;;;;;;5076609;28;20048;-60
2022/08/21 05:06:46;;;;;;;5.97;1.73;;;14.90;99.90;;;;;;5076809;28;20029;-59
2022/08/21 05:09:16;;;;;;;7.70;2.10;;;15.00;99.90;;;;;;5076665;28;20045;-59
2022/08/21 05:11:42;;;;;;;6.65;1.75;;;14.90;99.90;;;;;;5059444;28;20025;-59
2022/08/21 05:14:09;;;;;;;8.13;2.30;;;14.90;99.90;;;;;;5076689;28;20041;-59
2022/08/21 05:16:35;;;;;;;8.45;2.22;;;14.90;99.90;;;;;;5076813;28;20299;-58
2022/08/21 05:19:01;;;;;;;8.38;2.20;;;14.90;99.90;;;;;;5076794;28;20060;-58
2022/08/21 05:21:26;;;;;;;8.18;1.70;;;14.90;99.90;;;;;;5076989;28;20068;-58
2022/08/21 05:23:52;;;;;;;6.47;2.10;;;14.90;99.90;;;;;;5076709;28;20039;-59
2022/08/21 05:26:18;;;;;;;5.93;1.83;;;14.90;99.90;;;;;;5076972;28;20032;-59
2022/08/21 05:28:44;;;;;;;6.65;2.40;;;14.90;99.90;;;;;;5076641;28;20043;-58
2022/08/21 05:31:10;;;;;;;8.50;1.73;;;14.90;99.90;;;;;;5076637;28;20025;-58
2022/08/21 05:33:36;;;;;;;7.78;2.35;;;14.90;99.90;;;;;;5059284;28;20090;-59
2022/08/21 05:36:02;;;;;;;7.88;2.15;;;14.90;99.90;;;;;;5076646;28;20028;-59
2022/08/21 05:38:28;;;;;;;5.38;1.63;;;15.00;99.90;;;;;;5059205;28;20037;-59
2022/08/21 05:40:54;;;;;;;8.57;2.05;;;15.10;99.90;;;;;;5076513;28;20388;-59
2022/08/21 05:43:21;;;;;;;5.05;1.83;;;15.10;99.90;;;;;;5059408;28;20443;-59
2022/08/21 05:45:47;;;;;;;7.10;1.90;;;15.10;99.90;;;;;;5076376;28;20115;-59
2022/08/21 05:48:20;;;;;;;7.03;1.85;;;15.20;99.90;;;;;;5076473;28;20025;-59
2022/08/21 05:50:47;;;;;;;10.27;2.00;;;15.20;99.90;;;;;;5076416;28;20036;-59
2022/08/21 05:53:14;;;;;;;6.80;2.38;;;15.20;99.90;;;;;;5076991;28;20377;-59
2022/08/21 05:55:41;;;;;;;8.82;1.73;;;15.30;99.90;;;;;;5076413;28;20052;-59
2022/08/21 05:58:07;;;;;;;6.68;1.63;;;15.40;99.90;;;;;;5076385;28;20064;-59
2022/08/21 06:00:34;;;;;;;8.18;2.15;;;15.40;99.90;;;;;;5076335;28;20029;-59
2022/08/21 06:03:00;;;;;;;8.63;2.33;;;15.50;99.90;;;;;;5076397;28;20079;-59
2022/08/21 06:05:26;;;;;;;6.38;1.95;;;15.50;99.90;;;;;;5076174;28;20095;-59
2022/08/21 06:07:52;;;;;;;5.25;1.88;;;15.60;99.90;;;;;;5076279;28;20025;-59
2022/08/21 06:10:18;;;;;;;8.82;2.05;;;15.70;99.90;;;;;;5076100;28;20033;-59
2022/08/21 06:12:44;;;;;;;9.00;2.70;;;15.80;99.90;;;;;;5078215;28;20044;-59
2022/08/21 06:15:10;;;;;;;5.97;1.85;;;15.90;99.90;;;;;;5079858;28;20423;-59
2022/08/21 06:17:36;;;;;;;6.65;2.05;;;16.10;99.90;;;;;;5079851;28;20286;-59
2022/08/21 06:20:04;;;;;;;13.25;2.20;;;16.20;99.90;;;;;;5079937;28;20066;-59
2022/08/21 06:22:30;;;;;;;9.38;2.08;;;16.30;99.90;;;;;;5062615;28;20052;-60
2022/08/21 06:24:56;;;;;;;6.40;1.88;;;16.50;99.90;;;;;;5079824;28;20041;-59
2022/08/21 06:27:21;;;;;;;7.45;2.10;;;16.60;99.90;;;;;;5079615;28;20054;-60
2022/08/21 06:29:47;;;;;;;5.80;1.65;;;16.80;99.90;;;;;;5079799;28;20132;-59
2022/08/21 06:32:14;;;;;;;6.28;1.88;;;16.80;99.90;;;;;;5079622;28;20385;-59
2022/08/21 06:34:41;;;;;;;13.02;2.50;;;16.90;99.90;;;;;;5079577;28;20043;-59
2022/08/21 06:37:07;;;;;;;14.00;2.33;;;17.10;99.90;;;;;;5079510;28;20028;-59
2022/08/21 06:39:33;;;;;;;8.35;2.10;;;17.10;99.90;;;;;;5079494;28;20111;-59
2022/08/21 06:41:59;;;;;;;7.70;1.85;;;17.00;99.90;;;;;;5079408;28;20112;-59
2022/08/21 06:44:30;;;;;;;5.55;1.48;;;17.10;99.90;;;;;;5079518;28;20029;-59
2022/08/21 06:46:55;;;;;;;7.47;2.05;;;17.20;99.90;;;;;;5062270;28;20269;-59
2022/08/21 06:49:21;;;;;;;7.43;2.03;;;17.10;99.90;;;;;;5079283;28;20040;-59
2022/08/21 06:51:47;;;;;;;7.70;2.45;;;17.20;99.90;;;;;;5079251;28;20408;-59
2022/08/21 06:54:13;;;;;;;6.05;2.30;;;17.20;99.90;;;;;;5079256;28;20036;-59
2022/08/21 06:56:38;;;;;;;5.75;1.90;;;17.40;99.90;;;;;;5079197;28;20021;-60
2022/08/21 06:59:05;;;;;;;12.40;2.33;;;17.50;99.90;;;;;;5079142;28;20033;-58
2022/08/21 07:01:32;;;;;;;7.88;1.95;;;17.40;99.90;;;;;;5061671;28;20059;-58
2022/08/21 07:03:58;;;;;;;6.00;1.90;;;17.70;99.90;;;;;;5078865;28;20113;-59
2022/08/21 07:06:24;;;;;;;8.40;2.10;;;17.70;99.90;;;;;;5061619;28;20025;-59
2022/08/21 07:08:50;;;;;;;11.95;2.25;;;17.50;99.90;;;;;;5078664;28;20074;-58
2022/08/21 07:11:22;;;;;;;7.60;2.05;;;17.60;99.90;;;;;;5078876;28;20395;-59
2022/08/21 07:13:50;;;;;;;10.45;2.17;;;17.80;99.90;;;;;;5078845;28;20063;-60
2022/08/21 07:16:16;;;;;;;9.50;2.28;;;18.00;99.90;;;;;;5078702;28;20104;-59
2022/08/21 07:18:42;;;;;;;7.75;1.85;;;18.30;99.90;;;;;;5061725;28;20400;-59
2022/08/21 07:21:08;;;;;;;6.50;1.90;;;18.60;99.90;;;;;;5078702;28;20119;-59
2022/08/21 07:23:41;;;;;;;10.52;2.10;;;18.60;99.90;;;;;;5060736;28;20043;-59
2022/08/21 07:26:12;;;;;;;8.18;1.70;;;18.50;99.90;;;;;;5062408;28;20036;-59
2022/08/21 07:28:38;;;;;;;8.02;1.65;;;18.40;99.90;;;;;;5061029;28;20300;-59
2022/08/21 07:31:04;;;;;;;7.90;1.98;;;18.50;99.90;;;;;;5078515;28;20051;-59
2022/08/21 07:33:33;;;;;;;6.53;1.90;;;18.70;99.90;;;;;;5078484;28;20321;-59
2022/08/21 07:35:59;;;;;;;8.23;2.08;;;18.90;99.90;;;;;;5078886;28;20041;-59
2022/08/21 07:38:25;;;;;;;9.48;1.70;;;19.20;99.90;;;;;;5078348;28;20293;-60
2022/08/21 07:40:54;;;;;;;8.32;1.92;;;19.20;99.90;;;;;;5060843;28;20036;-59
2022/08/21 07:43:21;;;;;;;6.10;1.50;;;19.30;99.90;;;;;;5078011;28;20064;-60
2022/08/21 07:45:49;;;;;;;11.02;1.70;;;19.40;99.90;;;;;;5078145;28;20044;-58
2022/08/21 07:48:15;;;;;;;8.43;1.80;;;19.50;99.90;;;;;;5078083;28;20025;-58
2022/08/21 07:50:42;;;;;;;8.13;1.42;;;19.50;99.90;;;;;;5078635;28;20025;-59
2022/08/21 07:53:08;;;;;;;8.32;1.70;;;19.60;99.90;;;;;;5078119;28;20319;-59
2022/08/21 07:55:34;;;;;;;8.35;1.67;;;19.70;99.90;;;;;;5060647;28;20039;-59
2022/08/21 07:58:00;;;;;;;6.13;1.45;;;19.70;99.90;;;;;;5077906;28;20032;-59
2022/08/21 08:00:28;;;;;;;8.32;1.48;;;19.70;99.90;;;;;;5077878;28;20437;-59
2022/08/21 08:02:55;;;;;;;10.63;1.90;;;19.70;99.90;;;;;;5077838;28;20048;-59
2022/08/21 08:05:25;;;;;;;5.15;1.33;;;19.90;99.90;;;;;;5077706;28;20115;-60
2022/08/21 08:07:51;;;;;;;8.35;1.60;;;20.00;99.90;;;;;;5060570;28;20387;-59
2022/08/21 08:10:18;;;;;;;4.60;1.23;;;20.00;99.90;;;;;;5077467;28;20067;-60
2022/08/21 08:12:44;;;;;;;8.65;2.22;;;20.10;99.90;;;;;;5077596;28;20083;-60
2022/08/21 08:15:15;;;;;;;6.65;1.73;;;20.00;99.90;;;;;;5078427;28;20116;-60
2022/08/21 08:17:41;;;;;;;8.63;1.50;;;20.00;99.90;;;;;;5077731;28;20035;-59
2022/08/21 08:20:08;;;;;;;5.10;1.33;;;20.10;99.90;;;;;;5077481;28;20036;-59
2022/08/21 08:22:37;;;;;;;7.65;1.63;;;20.30;99.90;;;;;;5077516;28;20108;-59
2022/08/21 08:25:04;;;;;;;9.23;1.70;;;20.40;99.90;;;;;;5077388;28;20097;-58
2022/08/21 08:27:30;;;;;;;5.32;1.30;;;20.70;99.90;;;;;;5077399;28;20091;-58
2022/08/21 08:29:56;;;;;;;5.85;1.20;;;20.80;99.90;;;;;;5077303;28;20025;-58
2022/08/21 08:32:28;;;;;;;5.57;1.50;;;20.60;99.90;;;;;;5077522;28;20039;-59
2022/08/21 08:34:54;;;;;;;6.50;1.88;;;20.50;99.90;;;;;;5059144;28;20029;-59
2022/08/21 08:37:20;;;;;;;6.60;1.23;;;20.40;99.90;;;;;;5077243;28;20035;-59
2022/08/21 08:39:47;;;;;;;8.00;1.80;;;20.40;99.90;;;;;;5077179;28;20046;-59
2022/08/21 08:42:25;;;;;;;5.38;1.38;;;20.70;99.90;;;;;;5077182;28;20072;-61
2022/08/21 08:44:59;;;;;;;6.40;1.70;;;20.70;99.90;;;;;;5043048;28;20115;-62
2022/08/21 08:47:26;;;;;;;5.30;1.27;;;20.20;99.90;;;;;;5059891;28;20028;-62
2022/08/21 08:50:00;;;;;;;9.00;1.63;;;20.20;99.90;;;;;;5059648;28;20060;-58
2022/08/21 08:52:33;;;;;;;7.95;1.58;;;20.60;99.90;;;;;;5077366;28;20090;-59
2022/08/21 08:55:20;;;;;;;7.00;1.90;;;20.80;99.90;;;;;;5077242;28;20059;-59
2022/08/21 08:57:49;;;;;;;8.02;1.80;;;21.00;99.90;;;;;;5076996;28;20043;-60
2022/08/21 09:00:17;;;;;;;11.27;1.65;;;21.00;99.90;;;;;;5076965;28;20027;-59
2022/08/21 09:02:45;;;;;;;8.52;1.70;;;21.20;99.90;;;;;;5077205;28;20331;-61
2022/08/21 09:05:26;;;;;;;7.35;1.55;;;21.40;99.90;;;;;;5076846;28;20054;-64
2022/08/21 09:08:15;;;;;;;7.30;1.40;;;20.60;99.90;;;;;;5077508;28;20096;-60
2022/08/21 09:10:51;;;;;;;6.57;1.20;;;20.40;99.90;;;;;;5076751;28;20342;-60
2022/08/21 09:13:20;;;;;;;5.90;1.48;;;20.40;99.90;;;;;;5076973;28;20043;-62
2022/08/21 09:16:07;;;;;;;9.80;1.40;;;20.60;99.90;;;;;;5059239;28;20075;-60
2022/08/21 09:18:34;;;;;;;10.45;1.80;;;20.60;99.90;;;;;;5059128;28;20037;-58
2022/08/21 09:21:27;;;;;;;6.40;1.33;;;21.00;99.90;;;;;;5076701;28;20027;-63
2022/08/21 09:24:10;;;;;;;6.82;1.48;;;20.90;99.90;;;;;;5076775;28;20041;-60
2022/08/21 09:26:59;;;;;;;3.72;1.13;;;20.90;99.90;;;;;;5059246;28;20051;-59
2022/08/21 09:29:30;;;;;;;8.88;1.10;;;21.40;99.90;;;;;;5058928;28;20032;-60
2022/08/21 09:31:56;;;;;;;6.65;1.23;;;21.70;99.90;;;;;;5076766;28;20051;-58
2022/08/21 09:34:27;;;;;;;6.32;1.10;;;21.80;99.90;;;;;;5058975;28;20308;-60
2022/08/21 09:36:54;;;;;;;6.83;1.40;;;22.30;99.90;;;;;;5076821;28;20040;-59
2022/08/21 09:39:29;;;;;;;6.53;1.48;;;22.80;99.90;;;;;;5076400;28;20037;-59
2022/08/21 09:42:02;;;;;;;6.93;1.25;;;22.60;99.90;;;;;;5076305;28;20060;-60
2022/08/21 09:44:31;;;;;;;6.90;1.40;;;22.50;99.90;;;;;;5076099;28;20041;-60
2022/08/21 09:46:57;;;;;;;9.50;1.88;;;22.50;99.90;;;;;;5078829;28;20042;-61
2022/08/21 09:49:32;;;;;;;5.72;1.38;;;22.50;99.90;;;;;;5080314;28;20021;-63
2022/08/21 09:51:59;;;;;;;5.57;1.58;;;22.40;99.90;;;;;;5080314;28;20058;-60
2022/08/21 09:54:36;;;;;;;7.32;1.40;;;22.50;99.90;;;;;;5080383;28;20044;-60
2022/08/21 09:59:54;;;;;;;5.30;1.73;;;23.20;99.90;;;;;;5080179;28;20068;-59
2022/08/21 10:02:29;;;;;;;6.05;1.50;;;23.50;99.90;;;;;;5080282;28;20404;-58
2022/08/21 10:04:58;;;;;;;6.88;1.73;;;23.70;99.90;;;;;;5079737;28;20114;-59
2022/08/21 10:07:27;;;;;;;5.75;1.40;;;23.70;99.90;;;;;;5079883;28;20029;-59
2022/08/21 10:10:09;;;;;;;7.82;1.60;;;23.40;99.90;;;;;;5079544;28;20308;-60
2022/08/21 10:12:59;;;;;;;6.38;1.38;;;22.60;99.90;;;;;;5079844;28;20033;-60
2022/08/21 10:16:13;;;;;;;7.35;1.70;;;22.40;99.90;;;;;;5079795;28;20038;-59
2022/08/21 10:18:45;;;;;;;8.30;1.70;;;22.80;99.90;;;;;;4998958;28;20038;-59
2022/08/21 10:21:38;;;;;;;5.68;1.30;;;23.10;99.90;;;;;;4999590;28;20038;-60
2022/08/21 10:24:23;;;;;;;6.15;1.65;;;23.20;99.90;;;;;;5060545;28;20052;-59
2022/08/21 10:26:56;;;;;;;7.18;2.00;;;23.10;99.90;;;;;;5079854;28;20399;-61
2022/08/21 10:29:43;;;;;;;7.38;1.80;;;23.20;99.90;;;;;;5079620;28;20036;-60
2022/08/21 10:32:40;;;;;;;7.75;1.63;;;23.20;99.90;;;;;;5079918;28;20315;-60
2022/08/21 10:35:31;;;;;;;9.20;2.05;;;23.80;99.90;;;;;;5079559;28;20060;-60
2022/08/21 10:38:00;;;;;;;9.68;1.70;;;24.40;99.90;;;;;;5079558;28;20123;-60
2022/08/21 10:40:34;;;;;;;7.95;1.85;;;24.60;99.90;;;;;;5079330;28;20400;-60
2022/08/21 10:43:23;;;;;;;8.15;1.85;;;24.10;99.90;;;;;;5079160;28;20075;-59
2022/08/21 10:46:06;;;;;;;7.88;1.50;;;24.10;99.90;;;;;;5079294;28;20033;-60
2022/08/21 10:48:54;;;;;;;6.35;1.58;;;24.10;99.90;;;;;;5079217;28;20365;-60
2022/08/21 10:51:36;;;;;;;8.45;1.77;;;23.60;99.90;;;;;;5061774;28;20033;-60
2022/08/21 10:54:32;;;;;;;7.97;1.70;;;24.10;99.90;;;;;;5079065;28;20113;-60
2022/08/21 10:57:11;;;;;;;8.80;1.83;;;24.60;99.90;;;;;;5063722;28;20039;-60
2022/08/21 10:59:45;;;;;;;7.53;2.05;;;25.20;99.90;;;;;;5061184;28;20090;-60
2022/08/21 11:02:31;;;;;;;4.07;1.52;;;25.90;99.90;;;;;;5079338;28;20307;-60
2022/08/21 11:05:00;;;;;;;6.78;1.60;;;25.90;99.90;;;;;;5078909;28;20044;-60
2022/08/21 11:07:35;;;;;;;7.20;1.50;;;25.10;99.90;;;;;;5078847;28;20039;-60
2022/08/21 11:10:16;;;;;;;6.38;1.55;;;24.80;99.90;;;;;;5078831;28;20078;-59
2022/08/21 11:12:55;;;;;;;8.52;1.73;;;24.90;99.90;;;;;;5078653;28;20021;-59
2022/08/21 11:15:56;;;;;;;8.07;1.90;;;25.30;99.90;;;;;;5078710;28;20046;-60
2022/08/21 11:18:22;;;;;;;7.60;1.52;;;25.50;99.90;;;;;;5061071;28;20035;-59
2022/08/21 11:21:15;;;;;;;8.70;1.55;;;26.30;99.90;;;;;;5061348;28;20032;-58
2022/08/21 11:23:54;;;;;;;8.02;2.00;;;26.50;99.90;;;;;;5078477;28;20086;-59
2022/08/21 11:26:41;;;;;;;9.35;2.17;;;27.40;99.90;;;;;;5078406;28;20028;-59
2022/08/21 11:29:31;;;;;;;8.65;1.67;;;28.00;99.90;;;;;;5078249;28;20056;-59
2022/08/21 11:32:07;;;;;;;6.80;1.60;;;28.90;99.90;;;;;;5078332;28;20185;-60
2022/08/21 11:34:40;;;;;;;6.68;1.73;;;28.30;99.90;;;;;;5078223;28;20119;-59
2022/08/21 11:37:41;;;;;;;6.82;1.50;;;27.80;99.90;;;;;;5078158;28;20127;-59
2022/08/21 11:40:38;;;;;;;6.00;1.77;;;28.20;99.90;;;;;;5060624;28;20033;-60
2022/08/21 11:43:12;;;;;;;7.53;1.88;;;28.30;99.90;;;;;;5078179;28;20252;-59
2022/08/21 11:45:49;;;;;;;7.15;1.70;;;28.30;99.90;;;;;;5078306;28;20036;-60
2022/08/21 11:48:36;;;;;;;7.05;1.90;;;28.90;99.90;;;;;;5077962;28;20021;-60
2022/08/21 11:51:18;;;;;;;7.05;1.65;;;28.90;99.90;;;;;;5077929;28;20120;-60
2022/08/21 11:54:17;;;;;;;9.70;1.85;;;28.50;99.90;;;;;;5077715;28;20029;-59
2022/08/21 11:56:51;;;;;;;5.63;1.83;;;28.30;99.90;;;;;;5039872;28;20041;-59
2022/08/21 11:59:23;;;;;;;6.00;1.73;;;29.50;99.90;;;;;;5044027;28;20438;-59
2022/08/21 12:01:51;;;;;;;7.53;1.40;;;29.90;99.90;;;;;;5078406;28;20119;-61
2022/08/21 12:04:41;;;;;;;6.43;1.90;;;31.00;99.90;;;;;;5077643;28;20033;-60
2022/08/21 12:07:15;;;;;;;6.75;1.58;;;31.30;99.90;;;;;;5078062;28;20047;-60
2022/08/21 12:09:53;;;;;;;8.07;1.88;;;31.80;99.90;;;;;;5077819;28;20094;-60
2022/08/21 12:12:37;;;;;;;7.95;1.50;;;31.60;99.90;;;;;;5077592;28;20028;-60
2022/08/21 12:15:21;;;;;;;5.85;1.38;;;31.10;99.90;;;;;;5077786;28;20039;-60
2022/08/21 12:17:59;;;;;;;7.40;1.52;;;30.00;99.90;;;;;;5077935;28;20058;-60
2022/08/21 12:20:45;;;;;;;6.47;1.73;;;28.80;99.90;;;;;;5077544;28;20020;-59
2022/08/21 12:23:10;;;;;;;6.10;1.70;;;28.70;99.90;;;;;;5077385;28;20033;-59
2022/08/21 12:25:45;;;;;;;6.97;1.83;;;28.90;99.90;;;;;;5077334;28;20410;-60
2022/08/21 12:28:15;;;;;;;5.20;1.42;;;29.80;99.90;;;;;;5077427;28;20059;-60
2022/08/21 12:30:44;;;;;;;6.05;1.70;;;30.70;99.90;;;;;;5077419;28;20077;-61
2022/08/21 12:33:35;;;;;;;6.70;1.90;;;31.00;99.90;;;;;;5077347;28;20036;-60
2022/08/21 12:36:07;;;;;;;5.70;1.50;;;29.50;99.90;;;;;;5061182;28;20257;-60
2022/08/21 12:38:51;;;;;;;5.43;1.50;;;28.10;99.90;;;;;;5077334;28;20036;-60
2022/08/21 12:41:48;;;;;;;5.43;1.52;;;28.00;99.90;;;;;;5078125;28;20029;-60
2022/08/21 12:44:28;;;;;;;5.55;1.60;;;28.60;99.90;;;;;;5077070;28;20299;-60
2022/08/21 12:47:15;;;;;;;6.15;1.60;;;28.50;99.90;;;;;;5077097;28;20060;-59
2022/08/21 12:50:05;;;;;;;6.05;1.88;;;28.10;99.90;;;;;;5059583;28;20078;-60
2022/08/21 12:52:41;;;;;;;5.72;1.60;;;27.90;99.90;;;;;;5076999;28;20067;-61
2022/08/21 12:55:18;;;;;;;5.82;1.67;;;28.80;99.90;;;;;;5077084;28;20440;-59
2022/08/21 12:57:43;;;;;;;7.18;1.67;;;28.50;99.90;;;;;;5077197;28;20028;-59
2022/08/21 13:00:13;;;;;;;5.63;1.30;;;28.40;99.90;;;;;;5076833;28;20032;-58
2022/08/21 13:02:45;;;;;;;4.47;1.30;;;28.00;99.90;;;;;;5076861;28;20064;-60
2022/08/21 13:05:15;;;;;;;9.75;1.90;;;28.90;99.90;;;;;;5076721;28;20032;-59
2022/08/21 13:07:46;;;;;;;7.38;1.80;;;28.80;99.90;;;;;;5076673;28;20037;-60